イスタンブル の空港の天気 - METARとTAF

アタテュルク国際空港(イスタンブル) ( LTBA / IST ) - トルコ イスタンブル
飛行場実況気象(Metar)
観測時間08/13 23:20 EET (08/13 20:20 UTC)
風向・風速東北東 3m/s
視程10km以上
天気現象
なし
気温25℃
湿度74%
気圧1008hPa
METARLTBA 132020Z 06006KT CAVOK 25/20 Q1008 NOSIG RMK RWY23 06004KT
過去の天気等 Google飛行場航空写真 Wunderground天気予報

過去48時間のMETAR

飛行場予報(TAF)
発表時間: 8/13 19:40 EET (8/13 16:40 UTC)
予報対象時間: 13日21時 EET ~ 15日3時 EET
風向・風速北北東 5m/s
視程10km以上
なし
14日0時 EET ~ 14日3時 EET に徐々に
全天の4割程度の雲 雲底高度 980m
TAF LTBA 131640Z 1318/1424 03009KT CAVOK
BECMG 1321/1324 SCT032